WetterOnline ( https://www.wetteronline.de )

Wetter aktuell Bad Salzungen

Aktuelles Wetter: Eisenach (312m)

6-stündlich | Neueste Meldungen
Ortszeit Temperatur Wetter
Sa, 10.04. 14:00 6.2° C bedeckt
Sa, 10.04. 8:00 4.5° C leichter Regen
Sa, 10.04. 2:00 5.6° C bedeckt
Fr, 09.04. 20:00 10.9° C bedeckt
Fr, 09.04. 14:00 10.6° C wolkig
Fr, 09.04. 8:00 2.3° C bewölkt
Fr, 09.04. 2:00 2.7° C leicht bewölkt
Do, 08.04. 20:00 3.3° C wolkig
Ortszeit Temperatur Wetter
Sa, 10.04. 17:00 6.7° C leichter Regen
Sa, 10.04. 16:50 6.7° C leichter Regen
Sa, 10.04. 16:40 6.8° C Sprühregen
Sa, 10.04. 16:30 6.8° C leichter Regen
Sa, 10.04. 16:20 6.8° C leichter Regen
Sa, 10.04. 16:10 6.7° C leichter Regen
Sa, 10.04. 16:00 6.7° C Sprühregen
Sa, 10.04. 15:30 6.7° C leichter Regen
Sa, 10.04. 15:00 6.8° C Sprühregen
Sa, 10.04. 14:30 6.7° C Sprühregen
Sa, 10.04. 14:00 6.2° C bedeckt
Ortszeit Relative Feuchte Sichtweite
Sa, 10.04. 14:00 89% 14 km
Sa, 10.04. 8:00 95% 5.0 km
Sa, 10.04. 2:00 70% 35 km
Fr, 09.04. 20:00 40% 50 km
Fr, 09.04. 14:00 39% >70 km
Fr, 09.04. 8:00 60% 40 km
Fr, 09.04. 2:00 55% 50 km
Do, 08.04. 20:00 55% 55 km
Ortszeit Relative Feuchte Sichtweite
Sa, 10.04. 17:00 93% 6 km
Sa, 10.04. 16:50 93% -
Sa, 10.04. 16:40 93% -
Sa, 10.04. 16:30 92% 6 km
Sa, 10.04. 16:20 92% -
Sa, 10.04. 16:10 92% -
Sa, 10.04. 16:00 91% 9 km
Sa, 10.04. 15:30 91% 7 km
Sa, 10.04. 15:00 89% 9 km
Sa, 10.04. 14:30 86% 13 km
Sa, 10.04. 14:00 89% 14 km
Ortszeit Niederschlagsmenge Niederschlagsart
Sa, 10.04. 14:00 0.4 l/m2 in 6 Std. Regen
Sa, 10.04. 8:00 8 l/m2 in 12 Std. Regen
Sa, 10.04. 2:00 0.1 l/m2 in 6 Std. Regen
Fr, 09.04. 20:00 0.0 l/m2 in 12 Std. -
Fr, 09.04. 14:00 0.0 l/m2 in 6 Std. -
Fr, 09.04. 8:00 0.0 l/m2 in 12 Std. -
Fr, 09.04. 2:00 0.0 l/m2 in 6 Std. -
Do, 08.04. 20:00 0.1 l/m2 in 12 Std. Schnee, Niederschlag
Ortszeit Niederschlagsmenge Niederschlagsart
Sa, 10.04. 17:00 0.4 l/m2 in 1 Std. Regen
Sa, 10.04. 16:50 keine Meldung -
Sa, 10.04. 16:40 keine Meldung -
Sa, 10.04. 16:30 0.2 l/m2 in 1 Std. -
Sa, 10.04. 16:20 keine Meldung -
Sa, 10.04. 16:10 keine Meldung -
Sa, 10.04. 16:00 0.2 l/m2 in 1 Std. Regen
Sa, 10.04. 15:30 0.1 l/m2 in 1 Std. -
Sa, 10.04. 15:00 0.1 l/m2 in 1 Std. Regen
Sa, 10.04. 14:30 0.1 l/m2 in 1 Std. -
Sa, 10.04. 14:00 0.0 l/m2 in 1 Std. Regen
Ortszeit Stärke Spitze Richtung
km/h Bft. km/h Grad Sektor
Sa, 10.04. 14:00 11 2 15 80° O
Sa, 10.04. 8:00 0 0 18 - -
Sa, 10.04. 2:00 4 1 18 320° NW
Fr, 09.04. 20:00 11 2 40 220° SW
Fr, 09.04. 14:00 22 4 43 260° W
Fr, 09.04. 8:00 11 2 22 250° W
Fr, 09.04. 2:00 13 3 31 230° SW
Do, 08.04. 20:00 11 2 36 220° SW
Ortszeit Stärke Spitze Richtung
km/h Bft. km/h Grad Sektor
Sa, 10.04. 17:00 17 3 22 90° O
Sa, 10.04. 16:50 17 3 - 90° O
Sa, 10.04. 16:40 15 3 - 90° O
Sa, 10.04. 16:30 14 3 22 80° O
Sa, 10.04. 16:20 14 3 - 80° O
Sa, 10.04. 16:10 14 3 - 80° O
Sa, 10.04. 16:00 15 3 19 90° O
Sa, 10.04. 15:30 13 3 15 80° O
Sa, 10.04. 15:00 7 2 14 100° O
Sa, 10.04. 14:30 11 2 14 80° O
Sa, 10.04. 14:00 11 2 15 80° O
Ortszeit Untergrenze Bedeckung Gattung
total tief tief mittel hoch
Sa, 10.04. 14:00 240 m 8/8 8/8 - - -
Sa, 10.04. 8:00 540 m 8/8 8/8 - - -
Sa, 10.04. 2:00 1500 m 8/8 8/8 - - -
Fr, 09.04. 20:00 4500 m 8/8 8/8 - - -
Fr, 09.04. 14:00 5400 m 8/8 8/8 - - -
Fr, 09.04. 8:00 3900 m 8/8 7/8 - - -
Fr, 09.04. 2:00 7200 m 6/8 0/8 - - -
Do, 08.04. 20:00 1440 m 7/8 2/8 - - -
Ortszeit Bedeckungsgrad in Achtel und Wolkenuntergrenze
Sa, 10.04. 17:00 4(180m) 8(300m)
Sa, 10.04. 16:50 4(180m) 8(300m)
Sa, 10.04. 16:40 4(180m) 8(300m)
Sa, 10.04. 16:30 8(270m)
Sa, 10.04. 16:20 8(270m)
Sa, 10.04. 16:10 8(270m)
Sa, 10.04. 16:00 8(270m)
Sa, 10.04. 15:30 8(240m)
Sa, 10.04. 15:00 8(240m)
Sa, 10.04. 14:30 8(270m)
Sa, 10.04. 14:00 8(240m)
Ortszeit Luftdruck NN (hPa) Tendenz (hPa in 3 Std.)
Sa, 10.04. 14:00 1016 + 0,7
Sa, 10.04. 8:00 1014 + 0,9
Sa, 10.04. 2:00 1013 - 0,7
Fr, 09.04. 20:00 1013 - 0,3
Fr, 09.04. 14:00 1015 - 1,4
Fr, 09.04. 8:00 1018 - 1,1
Fr, 09.04. 2:00 1021 - 1,5
Do, 08.04. 20:00 1023 - 1,1
Ortszeit Luftdruck NN (hPa) Tendenz (hPa in 3 Std.)
Sa, 10.04. 17:00 1014 - 1,2
Sa, 10.04. 16:50 1014 keine Meldung
Sa, 10.04. 16:40 1015 keine Meldung
Sa, 10.04. 16:30 1015 - 0,9
Sa, 10.04. 16:20 1015 keine Meldung
Sa, 10.04. 16:10 1015 keine Meldung
Sa, 10.04. 16:00 1015 - 0,7
Sa, 10.04. 15:30 1015 - 0,4
Sa, 10.04. 15:00 1016 - 0,1
Sa, 10.04. 14:30 1016 + 0,1
Sa, 10.04. 14:00 1016 + 0,7
Ortszeit Schneehöhe (cm)
Sa, 10.04. 14:00 0
Sa, 10.04. 8:00 0
Sa, 10.04. 2:00 0
Fr, 09.04. 20:00 0
Fr, 09.04. 14:00 0
Fr, 09.04. 8:00 0
Fr, 09.04. 2:00 0
Do, 08.04. 20:00 0
Ortszeit Schneehöhe (cm)
Sa, 10.04. 17:00 0
Sa, 10.04. 16:50 0
Sa, 10.04. 16:40 0
Sa, 10.04. 16:30 0
Sa, 10.04. 16:20 0
Sa, 10.04. 16:10 0
Sa, 10.04. 16:00 0
Sa, 10.04. 15:30 0
Sa, 10.04. 15:00 0
Sa, 10.04. 14:30 0
Sa, 10.04. 14:00 0
Link zu dieser Seite / Seite empfehlen

Das Wetter in ...